Time;durP1;ratioP1;P1;durP2;ratioP2;P2;SDS_P1;SDS_P2;PMS_P1;PMS_P2;Temp;Humidity;BMP_temperature;BMP_pressure;BME280_temperature;BME280_humidity;BME280_pressure;Samples;Min_cycle;Max_cycle;Signal;HPM_P1;HPM_P2
2022/05/19 00:01:21;;;;;;;6.63;6.00;;;17.80;99.90;;;;;;4980516;28;20493;-80
2022/05/19 00:03:48;;;;;;;5.07;4.57;;;17.80;99.90;;;;;;4980386;28;20945;-80
2022/05/19 00:06:15;;;;;;;6.00;5.60;;;17.70;99.90;;;;;;4980451;28;20454;-80
2022/05/19 00:08:42;;;;;;;5.23;4.90;;;17.70;99.90;;;;;;4980648;28;20477;-80
2022/05/19 00:11:12;;;;;;;6.40;5.93;;;17.70;99.90;;;;;;4979860;28;20451;-80
2022/05/19 00:13:40;;;;;;;5.63;5.23;;;17.60;99.90;;;;;;4980979;28;20481;-80
2022/05/19 00:16:07;;;;;;;5.83;5.37;;;17.60;99.90;;;;;;4980702;28;20455;-80
2022/05/19 00:18:34;;;;;;;5.67;5.13;;;17.60;99.90;;;;;;4980143;28;20455;-81
2022/05/19 00:21:01;;;;;;;5.77;5.27;;;17.50;99.90;;;;;;4980165;28;20516;-80
2022/05/19 00:23:27;;;;;;;6.60;6.07;;;17.50;99.90;;;;;;4979955;28;20451;-80
2022/05/19 00:25:54;;;;;;;6.23;5.73;;;17.40;99.90;;;;;;4980477;28;20463;-80
2022/05/19 00:28:22;;;;;;;6.63;5.90;;;17.40;99.90;;;;;;4979970;28;20475;-80
2022/05/19 00:30:49;;;;;;;5.30;4.80;;;17.30;99.90;;;;;;4979825;28;20459;-80
2022/05/19 00:33:16;;;;;;;5.40;5.00;;;17.30;99.90;;;;;;4979729;28;20454;-81
2022/05/19 00:35:43;;;;;;;8.73;5.50;;;17.30;99.90;;;;;;4979642;28;20940;-80
2022/05/19 00:38:10;;;;;;;5.83;5.30;;;17.20;99.90;;;;;;4983353;28;20483;-80
2022/05/19 00:40:38;;;;;;;5.00;4.27;;;17.20;99.90;;;;;;4983755;28;20461;-79
2022/05/19 00:43:05;;;;;;;5.27;4.83;;;17.10;99.90;;;;;;4983599;28;20457;-79
2022/05/19 00:45:41;;;;;;;6.03;5.30;;;17.10;99.90;;;;;;4983329;28;20457;-80
2022/05/19 00:48:15;;;;;;;6.87;6.20;;;17.10;99.90;;;;;;4983245;28;20478;-80
2022/05/19 00:50:46;;;;;;;5.13;4.83;;;17.00;99.90;;;;;;4982523;28;20460;-80
2022/05/19 00:53:20;;;;;;;5.93;5.40;;;17.00;99.90;;;;;;4983545;28;20821;-79
2022/05/19 00:55:49;;;;;;;7.50;6.90;;;17.10;99.90;;;;;;4983185;28;20461;-79
2022/05/19 00:58:27;;;;;;;5.00;4.67;;;16.90;99.90;;;;;;4982789;28;20477;-80
2022/05/19 01:00:56;;;;;;;4.93;4.63;;;16.90;99.90;;;;;;4982782;28;20548;-80
2022/05/19 01:03:25;;;;;;;6.90;6.30;;;16.90;99.90;;;;;;4982886;28;20458;-79
2022/05/19 01:05:55;;;;;;;5.27;4.87;;;16.80;99.90;;;;;;4982872;28;20461;-80
2022/05/19 01:08:25;;;;;;;5.60;5.10;;;16.70;99.90;;;;;;4982918;28;20481;-79
2022/05/19 01:10:53;;;;;;;5.53;5.13;;;16.80;99.90;;;;;;4982008;28;20480;-80
2022/05/19 01:13:21;;;;;;;6.00;5.40;;;16.70;99.90;;;;;;4982941;28;20459;-80
2022/05/19 01:15:52;;;;;;;5.87;5.47;;;16.70;99.90;;;;;;4982434;28;20518;-80
2022/05/19 01:18:21;;;;;;;6.50;5.60;;;16.70;99.90;;;;;;4983000;28;20480;-80
2022/05/19 01:20:48;;;;;;;5.80;5.40;;;16.60;99.90;;;;;;4982163;28;20456;-79
2022/05/19 01:23:24;;;;;;;5.87;5.37;;;16.60;99.90;;;;;;4982734;28;20453;-79
2022/05/19 01:26:01;;;;;;;5.63;5.20;;;16.60;99.90;;;;;;4983056;28;20450;-80
2022/05/19 01:28:30;;;;;;;6.27;5.30;;;16.60;99.90;;;;;;4982427;28;20493;-80
2022/05/19 01:30:56;;;;;;;5.50;5.10;;;16.50;99.90;;;;;;4982793;28;20447;-80
2022/05/19 01:33:23;;;;;;;5.40;4.93;;;16.50;99.90;;;;;;4981241;28;20798;-80
2022/05/19 01:35:50;;;;;;;5.50;5.10;;;16.40;99.90;;;;;;4978155;28;20458;-80
2022/05/19 01:38:22;;;;;;;5.60;5.20;;;16.40;99.90;;;;;;4977488;28;20478;-80
2022/05/19 01:41:02;;;;;;;6.50;5.87;;;16.40;99.90;;;;;;4977702;28;20444;-79
2022/05/19 01:43:38;;;;;;;5.53;5.13;;;16.40;99.90;;;;;;4977584;28;20456;-79
2022/05/19 01:46:13;;;;;;;7.83;4.70;;;16.30;99.90;;;;;;4977780;28;20840;-80
2022/05/19 01:48:48;;;;;;;5.43;5.03;;;16.30;99.90;;;;;;4979573;28;20456;-80
2022/05/19 01:51:21;;;;;;;5.97;5.57;;;16.30;99.90;;;;;;4981948;28;20487;-80
2022/05/19 01:53:54;;;;;;;5.20;4.73;;;16.30;99.90;;;;;;4991020;28;20948;-79
2022/05/19 01:57:01;;;;;;;5.80;5.40;;;16.20;99.90;;;;;;4990545;28;20473;-80
2022/05/19 01:59:38;;;;;;;6.60;6.00;;;16.20;99.90;;;;;;4982049;28;20508;-79
2022/05/19 02:02:10;;;;;;;7.07;6.53;;;16.20;99.90;;;;;;4989070;28;20495;-79
2022/05/19 02:04:43;;;;;;;5.20;4.73;;;16.10;99.90;;;;;;4977606;28;20468;-79
2022/05/19 02:07:14;;;;;;;5.73;5.30;;;16.10;99.90;;;;;;4977458;28;20493;-80
2022/05/19 02:09:46;;;;;;;5.17;4.77;;;16.10;99.90;;;;;;4976090;28;20464;-80
2022/05/19 02:12:12;;;;;;;6.20;5.70;;;16.00;99.90;;;;;;4977539;28;20823;-80
2022/05/19 02:14:44;;;;;;;6.80;6.30;;;15.90;99.90;;;;;;4977247;28;20534;-80
2022/05/19 02:17:15;;;;;;;5.67;5.17;;;15.90;99.90;;;;;;4976730;28;20505;-81
2022/05/19 02:19:46;;;;;;;5.17;4.77;;;15.90;99.90;;;;;;4977013;28;20836;-80
2022/05/19 02:22:15;;;;;;;5.30;4.90;;;15.80;99.90;;;;;;4976452;28;20498;-80
2022/05/19 02:24:48;;;;;;;5.20;4.80;;;15.80;99.90;;;;;;4977187;28;20447;-80
2022/05/19 02:27:31;;;;;;;5.20;4.80;;;15.80;99.90;;;;;;4976979;28;20462;-81
2022/05/19 02:30:00;;;;;;;5.67;5.30;;;15.70;99.90;;;;;;4976389;28;20459;-80
2022/05/19 02:32:27;;;;;;;5.83;5.37;;;15.70;99.90;;;;;;4976555;28;20476;-80
2022/05/19 02:34:53;;;;;;;4.93;4.37;;;15.70;99.90;;;;;;4976704;28;20458;-80
2022/05/19 02:37:20;;;;;;;5.57;5.10;;;15.70;99.90;;;;;;4976776;28;20827;-80
2022/05/19 02:39:47;;;;;;;5.03;4.73;;;15.70;99.90;;;;;;4976668;28;20465;-80
2022/05/19 02:42:14;;;;;;;5.10;4.77;;;15.70;99.90;;;;;;4976283;28;20482;-79
2022/05/19 02:44:41;;;;;;;5.13;4.77;;;15.60;99.90;;;;;;4976984;28;20457;-80
2022/05/19 02:47:09;;;;;;;5.57;5.13;;;15.60;99.90;;;;;;4978291;28;20470;-80
2022/05/19 02:49:36;;;;;;;6.67;6.17;;;15.60;99.90;;;;;;4976667;28;20492;-80
2022/05/19 02:52:02;;;;;;;6.17;5.67;;;15.60;99.90;;;;;;4976138;28;20449;-80
2022/05/19 02:54:29;;;;;;;5.13;4.73;;;15.50;99.90;;;;;;4976651;28;20457;-80
2022/05/19 02:56:56;;;;;;;5.10;4.60;;;15.50;99.90;;;;;;4976096;28;20472;-80
2022/05/19 02:59:23;;;;;;;5.37;4.87;;;15.50;99.90;;;;;;4976401;28;21005;-80
2022/05/19 03:01:49;;;;;;;6.57;5.97;;;15.50;99.90;;;;;;4975772;28;21078;-80
2022/05/19 03:04:17;;;;;;;4.83;4.43;;;15.50;99.90;;;;;;4976723;28;20523;-80
2022/05/19 03:06:44;;;;;;;5.17;4.87;;;15.50;99.90;;;;;;4976956;28;20480;-80
2022/05/19 03:09:10;;;;;;;5.50;5.00;;;15.50;99.90;;;;;;4976284;28;20449;-79
2022/05/19 03:11:37;;;;;;;6.33;5.43;;;15.40;99.90;;;;;;4975992;28;20449;-79
2022/05/19 03:14:04;;;;;;;6.53;6.03;;;15.40;99.90;;;;;;4975735;28;20465;-80
2022/05/19 03:16:31;;;;;;;5.73;5.27;;;15.40;99.90;;;;;;4976262;28;20469;-80
2022/05/19 03:18:58;;;;;;;5.43;5.00;;;15.30;99.90;;;;;;4976196;28;20458;-79
2022/05/19 03:21:26;;;;;;;5.87;5.47;;;15.30;99.90;;;;;;4983444;28;20483;-80
2022/05/19 03:23:52;;;;;;;6.03;5.63;;;15.30;99.90;;;;;;4985234;28;20452;-80
2022/05/19 03:26:19;;;;;;;5.20;4.90;;;15.20;99.90;;;;;;4984514;28;20445;-79
2022/05/19 03:28:46;;;;;;;5.37;4.97;;;15.20;99.90;;;;;;4984708;28;20465;-80
2022/05/19 03:31:13;;;;;;;13.40;6.47;;;15.10;99.90;;;;;;4984214;28;20955;-80
2022/05/19 03:33:40;;;;;;;5.50;5.00;;;15.10;99.90;;;;;;4985068;28;20482;-80
2022/05/19 03:36:07;;;;;;;6.10;5.50;;;15.10;99.90;;;;;;4984828;28;20451;-80
2022/05/19 03:38:36;;;;;;;6.20;5.57;;;15.10;99.90;;;;;;4984585;28;20454;-80
2022/05/19 03:41:03;;;;;;;6.20;5.60;;;15.10;99.90;;;;;;4984039;28;20472;-80
2022/05/19 03:43:30;;;;;;;5.63;5.23;;;15.10;99.90;;;;;;4984431;28;20489;-80
2022/05/19 03:45:57;;;;;;;6.03;5.53;;;15.10;99.90;;;;;;4984649;28;20821;-79
2022/05/19 03:48:24;;;;;;;6.23;5.73;;;15.10;99.90;;;;;;4984022;28;20466;-80
2022/05/19 03:50:51;;;;;;;6.20;5.70;;;15.00;99.90;;;;;;4984141;28;20452;-80
2022/05/19 03:53:17;;;;;;;5.00;4.70;;;15.00;99.90;;;;;;4983522;28;20931;-80
2022/05/19 03:55:45;;;;;;;5.17;4.77;;;15.00;99.90;;;;;;4983167;28;20454;-80
2022/05/19 03:58:12;;;;;;;5.90;5.40;;;15.00;99.90;;;;;;4979420;28;20477;-80
2022/05/19 04:00:39;;;;;;;5.90;5.50;;;15.00;99.90;;;;;;4979750;28;20451;-80
2022/05/19 04:03:06;;;;;;;6.93;6.13;;;15.00;99.90;;;;;;4979294;28;20488;-80
2022/05/19 04:05:33;;;;;;;6.30;5.70;;;15.00;99.90;;;;;;4979573;28;20452;-79
2022/05/19 04:08:00;;;;;;;5.63;5.23;;;15.00;99.90;;;;;;4979422;28;20480;-80
2022/05/19 04:10:26;;;;;;;6.30;5.73;;;15.00;99.90;;;;;;4978918;28;20459;-80
2022/05/19 04:12:54;;;;;;;5.60;5.10;;;15.00;99.90;;;;;;4979662;28;20820;-80
2022/05/19 04:15:21;;;;;;;7.23;6.57;;;15.00;99.90;;;;;;4978970;28;21072;-79
2022/05/19 04:17:48;;;;;;;6.27;5.80;;;15.10;99.90;;;;;;4978750;28;20475;-80
2022/05/19 04:20:15;;;;;;;7.47;6.77;;;15.10;99.90;;;;;;4978806;28;20552;-80
2022/05/19 04:22:42;;;;;;;7.60;7.00;;;15.20;99.90;;;;;;4979361;28;20485;-80
2022/05/19 04:25:10;;;;;;;7.57;6.80;;;15.20;99.90;;;;;;4978902;28;20447;-79
2022/05/19 04:27:37;;;;;;;8.10;7.30;;;15.20;99.90;;;;;;4978682;28;20483;-79
2022/05/19 04:30:07;;;;;;;8.80;7.20;;;15.20;99.90;;;;;;4981332;28;20456;-80
2022/05/19 04:32:33;;;;;;;6.70;6.10;;;15.20;99.90;;;;;;4981736;28;20460;-80
2022/05/19 04:35:00;;;;;;;7.43;6.80;;;15.30;99.90;;;;;;4983223;28;20493;-80
2022/05/19 04:37:27;;;;;;;5.30;4.90;;;15.30;99.90;;;;;;4982968;28;20461;-80
2022/05/19 04:39:54;;;;;;;11.20;6.27;;;15.30;99.90;;;;;;4983336;28;20823;-80
2022/05/19 04:42:20;;;;;;;6.70;5.93;;;15.40;99.90;;;;;;4983645;28;20500;-79
2022/05/19 04:44:47;;;;;;;6.83;6.33;;;15.50;99.90;;;;;;4983235;28;20973;-80
2022/05/19 04:47:15;;;;;;;6.53;5.93;;;15.60;99.90;;;;;;4982935;28;20473;-80
2022/05/19 04:49:42;;;;;;;5.87;5.40;;;15.70;99.90;;;;;;4982925;28;20459;-80
2022/05/19 04:52:08;;;;;;;6.33;5.77;;;15.70;99.90;;;;;;4982195;28;20454;-79
2022/05/19 04:54:35;;;;;;;7.20;6.20;;;15.80;99.90;;;;;;4983301;28;20445;-80
2022/05/19 04:57:02;;;;;;;6.00;5.57;;;15.90;99.90;;;;;;4981869;28;20470;-80
2022/05/19 04:59:28;;;;;;;5.93;5.50;;;15.90;99.90;;;;;;4982883;28;20453;-78
2022/05/19 05:01:55;;;;;;;5.73;5.23;;;16.00;99.90;;;;;;4981442;28;20458;-80
2022/05/19 05:04:26;;;;;;;5.17;4.77;;;16.10;99.90;;;;;;4982721;28;20464;-80
2022/05/19 05:06:53;;;;;;;5.97;5.47;;;16.20;99.90;;;;;;4983692;28;20488;-80
2022/05/19 05:09:20;;;;;;;6.47;4.30;;;16.20;99.90;;;;;;4982580;28;20450;-80
2022/05/19 05:11:46;;;;;;;4.70;4.30;;;16.30;99.90;;;;;;4982521;28;20460;-80
2022/05/19 05:14:14;;;;;;;6.07;5.57;;;16.40;99.90;;;;;;4981705;28;20450;-80
2022/05/19 05:16:41;;;;;;;6.40;4.80;;;16.50;99.90;;;;;;4982051;28;20487;-80
2022/05/19 05:19:07;;;;;;;7.27;4.07;;;16.60;99.90;;;;;;4981722;28;20457;-80
2022/05/19 05:21:36;;;;;;;5.60;5.00;;;16.70;99.90;;;;;;4983090;28;20446;-80
2022/05/19 05:24:03;;;;;;;4.23;3.93;;;16.80;99.90;;;;;;4982272;28;20497;-81
2022/05/19 05:26:29;;;;;;;4.80;4.50;;;16.90;99.90;;;;;;4981851;28;20469;-79
2022/05/19 05:28:56;;;;;;;4.97;4.50;;;16.90;99.90;;;;;;4982192;28;20457;-80
2022/05/19 05:31:23;;;;;;;5.47;4.67;;;17.00;99.90;;;;;;4981598;28;21022;-80
2022/05/19 05:33:50;;;;;;;4.97;4.57;;;17.10;99.90;;;;;;4981774;28;20451;-80
2022/05/19 05:36:16;;;;;;;5.47;4.97;;;17.20;99.90;;;;;;4981972;28;20456;-80
2022/05/19 05:38:44;;;;;;;8.73;5.10;;;17.20;99.90;;;;;;4981409;28;20450;-80
2022/05/19 05:41:11;;;;;;;5.20;4.80;;;17.40;99.90;;;;;;4982126;28;20456;-80
2022/05/19 05:43:39;;;;;;;5.50;4.57;;;17.40;99.90;;;;;;4981806;28;20517;-80
2022/05/19 05:46:07;;;;;;;5.53;4.90;;;17.50;99.90;;;;;;4982608;28;20708;-80
2022/05/19 05:48:36;;;;;;;4.80;4.40;;;17.60;99.90;;;;;;4982054;28;20462;-80
2022/05/19 05:51:05;;;;;;;5.20;4.60;;;17.70;99.90;;;;;;4981900;28;20441;-80
2022/05/19 05:53:31;;;;;;;7.17;5.30;;;17.80;99.90;;;;;;4982535;28;20934;-80
2022/05/19 05:55:59;;;;;;;4.50;4.10;;;17.90;99.90;;;;;;4991503;28;20456;-78
2022/05/19 05:58:29;;;;;;;7.30;4.90;;;17.90;99.90;;;;;;4992697;28;20585;-78
2022/05/19 06:00:55;;;;;;;5.53;4.40;;;18.00;99.90;;;;;;4983033;28;20516;-80
2022/05/19 06:03:23;;;;;;;5.47;4.80;;;18.10;99.90;;;;;;4989735;28;20494;-78
2022/05/19 06:05:49;;;;;;;6.47;4.60;;;18.10;99.90;;;;;;4995774;28;20452;-80
2022/05/19 06:08:17;;;;;;;8.07;4.83;;;18.20;99.90;;;;;;4989611;28;20509;-79
2022/05/19 06:10:44;;;;;;;4.30;3.80;;;18.30;99.90;;;;;;4990043;28;20452;-80
2022/05/19 06:13:14;;;;;;;6.73;4.10;;;18.30;99.90;;;;;;4982475;28;20973;-80
2022/05/19 06:15:41;;;;;;;4.80;4.00;;;18.40;99.90;;;;;;4988767;28;20466;-79
2022/05/19 06:18:08;;;;;;;5.03;4.53;;;18.50;99.90;;;;;;4992790;28;20477;-79
2022/05/19 06:20:39;;;;;;;5.33;4.33;;;18.60;99.90;;;;;;4988416;28;20459;-79
2022/05/19 06:23:06;;;;;;;4.63;4.23;;;18.60;99.90;;;;;;4983424;28;20502;-80
2022/05/19 06:25:34;;;;;;;4.17;3.87;;;18.60;99.90;;;;;;4986907;28;20451;-80
2022/05/19 06:28:01;;;;;;;5.13;4.73;;;18.70;99.60;;;;;;4983287;28;20548;-80
2022/05/19 06:30:29;;;;;;;4.70;4.40;;;18.80;99.10;;;;;;4982176;28;20510;-80
2022/05/19 06:32:56;;;;;;;4.57;3.70;;;18.90;98.10;;;;;;4982072;28;20484;-80
2022/05/19 06:35:26;;;;;;;4.00;3.70;;;19.00;98.40;;;;;;4982263;28;20456;-79
2022/05/19 06:37:53;;;;;;;4.63;4.33;;;19.10;98.00;;;;;;4982056;28;20475;-80
2022/05/19 06:40:20;;;;;;;5.10;4.70;;;19.20;98.10;;;;;;4981293;28;20448;-79
2022/05/19 06:42:47;;;;;;;4.03;3.70;;;19.30;98.20;;;;;;4982173;28;20483;-80
2022/05/19 06:45:17;;;;;;;4.10;3.70;;;19.30;98.00;;;;;;4982147;28;20459;-81
2022/05/19 06:47:45;;;;;;;4.37;4.00;;;19.40;98.50;;;;;;4982278;28;20483;-80
2022/05/19 06:50:13;;;;;;;3.63;3.33;;;19.50;97.60;;;;;;4981845;28;20821;-80
2022/05/19 06:52:44;;;;;;;3.63;3.33;;;19.60;98.00;;;;;;4981275;28;20540;-80
2022/05/19 06:55:12;;;;;;;5.13;4.40;;;19.70;97.40;;;;;;4980549;28;20518;-80
2022/05/19 06:57:39;;;;;;;5.57;3.77;;;19.90;96.90;;;;;;4981555;28;20475;-80
2022/05/19 07:00:07;;;;;;;4.43;4.13;;;20.00;97.30;;;;;;4980618;28;20454;-78
2022/05/19 07:02:35;;;;;;;3.80;3.50;;;20.10;97.20;;;;;;4982312;28;20486;-80
2022/05/19 07:05:03;;;;;;;4.20;3.80;;;20.20;97.10;;;;;;4981334;28;20953;-80
2022/05/19 07:07:30;;;;;;;4.27;3.97;;;20.30;96.90;;;;;;4981487;28;20484;-81
2022/05/19 07:09:57;;;;;;;3.73;3.40;;;20.40;97.00;;;;;;4981755;28;20455;-81
2022/05/19 07:12:25;;;;;;;4.93;3.57;;;20.50;96.20;;;;;;4981591;28;20471;-81
2022/05/19 07:14:53;;;;;;;4.57;4.17;;;20.50;95.70;;;;;;4981494;28;20854;-81
2022/05/19 07:17:19;;;;;;;7.23;4.17;;;20.60;95.30;;;;;;4981555;28;20468;-81
2022/05/19 07:22:34;;;;;;;3.93;3.63;;;20.60;95.70;;;;;;4981910;28;20433;-81
2022/05/19 07:25:03;;;;;;;4.90;4.30;;;20.70;96.10;;;;;;4981749;28;20484;-81
2022/05/19 07:27:30;;;;;;;4.07;3.70;;;20.80;95.90;;;;;;4980358;28;20483;-81
2022/05/19 07:29:59;;;;;;;3.90;3.60;;;20.80;95.40;;;;;;4980847;28;20509;-80
2022/05/19 07:32:26;;;;;;;4.20;3.80;;;20.80;95.60;;;;;;4980860;28;20460;-81
2022/05/19 07:34:52;;;;;;;4.07;3.67;;;20.90;96.40;;;;;;4981102;28;20457;-80
2022/05/19 07:37:19;;;;;;;3.50;3.20;;;21.10;96.20;;;;;;4982315;28;20537;-81
2022/05/19 07:39:47;;;;;;;4.83;3.37;;;21.30;96.10;;;;;;4981736;28;20468;-81
2022/05/19 07:42:14;;;;;;;4.17;3.87;;;21.50;96.20;;;;;;4981147;28;20459;-81
2022/05/19 07:44:41;;;;;;;3.50;3.30;;;21.60;96.00;;;;;;4981804;28;20875;-80
2022/05/19 07:47:08;;;;;;;4.10;3.80;;;21.80;96.00;;;;;;4981267;28;21051;-81
2022/05/19 07:49:36;;;;;;;6.27;4.30;;;21.90;95.50;;;;;;4981996;28;20466;-81
2022/05/19 07:52:02;;;;;;;5.20;4.67;;;21.90;95.00;;;;;;4981006;28;20459;-81
2022/05/19 07:54:30;;;;;;;4.23;3.93;;;21.90;94.60;;;;;;4981848;28;20969;-81
2022/05/19 07:56:58;;;;;;;3.70;3.50;;;22.00;94.80;;;;;;4981608;28;20478;-80
2022/05/19 07:59:26;;;;;;;3.93;3.47;;;22.10;94.20;;;;;;4981193;28;20463;-81
2022/05/19 08:01:53;;;;;;;4.37;3.87;;;22.20;94.40;;;;;;4980721;28;20977;-81
2022/05/19 08:04:21;;;;;;;4.80;3.23;;;22.20;94.10;;;;;;4981099;28;21031;-81
2022/05/19 08:06:48;;;;;;;3.70;3.40;;;22.30;94.60;;;;;;4980650;28;20490;-81
2022/05/19 08:12:01;;;;;;;5.10;3.90;;;22.40;93.30;;;;;;4984611;28;20441;-80
2022/05/19 08:17:13;;;;;;;4.17;3.90;;;22.70;93.50;;;;;;4985805;28;20483;-81
2022/05/19 08:19:42;;;;;;;4.30;4.00;;;22.70;93.50;;;;;;4983719;28;20448;-81
2022/05/19 08:22:09;;;;;;;4.13;3.83;;;22.80;93.50;;;;;;4983193;28;20487;-81
2022/05/19 08:24:36;;;;;;;4.70;4.30;;;22.90;93.70;;;;;;4983533;28;20554;-82
2022/05/19 08:27:05;;;;;;;4.83;4.40;;;23.10;93.50;;;;;;4984118;28;20483;-81
2022/05/19 08:29:33;;;;;;;4.43;4.13;;;23.20;93.70;;;;;;4983588;28;20452;-81
2022/05/19 08:32:00;;;;;;;4.87;3.20;;;23.40;93.20;;;;;;4983375;28;20452;-81
2022/05/19 08:34:27;;;;;;;4.50;4.20;;;23.50;92.50;;;;;;4982980;28;20452;-82
2022/05/19 08:36:54;;;;;;;4.40;3.73;;;23.60;92.20;;;;;;4982927;28;20846;-81
2022/05/19 08:39:22;;;;;;;4.20;3.80;;;23.80;92.30;;;;;;4983981;28;20448;-81
2022/05/19 08:41:53;;;;;;;4.30;3.90;;;23.90;92.50;;;;;;4983578;28;20472;-81
2022/05/19 08:44:27;;;;;;;4.20;3.90;;;24.10;92.30;;;;;;4983336;28;20488;-81
2022/05/19 08:46:57;;;;;;;5.70;4.97;;;24.30;92.20;;;;;;4983544;28;20475;-81
2022/05/19 08:49:32;;;;;;;4.70;4.27;;;24.40;91.60;;;;;;4983922;28;21029;-81
2022/05/19 08:52:05;;;;;;;4.57;4.23;;;24.60;91.70;;;;;;4983437;28;20449;-81
2022/05/19 08:54:34;;;;;;;3.70;3.50;;;24.70;91.60;;;;;;4982948;28;20745;-82
2022/05/19 08:57:08;;;;;;;5.20;4.57;;;24.90;91.70;;;;;;4983329;28;20556;-81
2022/05/19 08:59:45;;;;;;;4.10;3.80;;;25.00;91.00;;;;;;4983082;28;20461;-81
2022/05/19 09:02:14;;;;;;;4.30;4.00;;;25.20;91.30;;;;;;4982527;28;20971;-81
2022/05/19 09:04:55;;;;;;;4.37;4.07;;;25.30;90.40;;;;;;4983830;28;20494;-81
2022/05/19 18:39:21;;;;;;;5.03;4.63;;;24.80;84.70;;;;;;4984058;23;20551;-85
2022/05/19 18:45:21;;;;;;;9.07;5.70;;;25.10;88.40;;;;;;4940366;28;20450;-85
2022/05/19 18:47:48;;;;;;;6.70;6.20;;;25.20;87.40;;;;;;4982675;28;20508;-85
2022/05/19 18:50:15;;;;;;;5.50;5.17;;;25.30;89.60;;;;;;4984537;28;20508;-85
2022/05/19 19:02:23;;;;;;;7.07;6.40;;;25.00;93.70;;;;;;4953868;29;20445;-87
2022/05/19 19:04:52;;;;;;;7.47;6.87;;;24.90;94.90;;;;;;4958069;29;20442;-87
2022/05/19 19:07:20;;;;;;;7.10;6.27;;;24.90;96.30;;;;;;4960346;28;20532;-87
2022/05/19 19:09:49;;;;;;;6.63;5.57;;;24.90;96.70;;;;;;4973422;28;20460;-86
2022/05/19 19:12:16;;;;;;;6.63;6.03;;;24.80;93.40;;;;;;4984739;28;20453;-86
2022/05/19 19:14:43;;;;;;;7.27;6.70;;;24.70;93.80;;;;;;4987202;28;20485;-85
2022/05/19 19:17:10;;;;;;;6.40;5.80;;;24.60;94.20;;;;;;4986510;28;20485;-85
2022/05/19 19:19:38;;;;;;;6.37;5.87;;;24.50;94.00;;;;;;4995855;28;20444;-85
2022/05/19 19:22:05;;;;;;;7.50;5.40;;;24.50;94.20;;;;;;4993581;28;20453;-85
2022/05/19 19:24:35;;;;;;;8.63;6.90;;;24.40;93.40;;;;;;4991176;28;20433;-87
2022/05/19 19:27:06;;;;;;;6.60;6.10;;;24.30;92.80;;;;;;4975997;28;20517;-86
2022/05/19 19:29:32;;;;;;;10.83;6.40;;;24.40;93.70;;;;;;4990828;28;20479;-87
2022/05/19 19:31:59;;;;;;;7.03;6.33;;;24.40;93.40;;;;;;4990116;28;20473;-86
2022/05/19 19:34:26;;;;;;;6.40;6.00;;;24.50;93.80;;;;;;4989395;28;20557;-85
2022/05/19 19:36:55;;;;;;;7.80;7.07;;;24.50;94.30;;;;;;4987959;28;20453;-85
2022/05/19 19:39:21;;;;;;;8.17;7.37;;;24.40;94.70;;;;;;4977086;28;20544;-84
2022/05/19 19:41:48;;;;;;;6.30;5.70;;;24.30;94.70;;;;;;4982687;28;20453;-84
2022/05/19 19:44:15;;;;;;;5.93;5.53;;;24.30;94.90;;;;;;4983329;28;20464;-85
2022/05/19 19:46:43;;;;;;;7.80;7.20;;;24.30;94.40;;;;;;4984825;28;20547;-84
2022/05/19 19:49:11;;;;;;;7.47;6.57;;;24.30;94.80;;;;;;4984822;28;20461;-84
2022/05/19 19:52:00;;;;;;;7.40;6.70;;;24.30;93.40;;;;;;4987958;28;20460;-87
2022/05/19 19:54:31;;;;;;;7.37;6.60;;;24.30;94.40;;;;;;4988412;28;20583;-88
2022/05/19 19:57:01;;;;;;;7.63;6.93;;;24.30;95.20;;;;;;4988544;28;20475;-87
2022/05/19 19:59:31;;;;;;;8.27;7.30;;;24.30;95.80;;;;;;4989160;28;20464;-86
2022/05/19 20:01:58;;;;;;;9.47;6.17;;;24.30;96.00;;;;;;4990330;28;20464;-87
2022/05/19 20:04:25;;;;;;;10.70;7.97;;;24.40;96.40;;;;;;4992683;28;20463;-87
2022/05/19 20:06:52;;;;;;;6.93;6.33;;;24.40;96.60;;;;;;4992108;28;20814;-86
2022/05/19 20:09:22;;;;;;;7.87;7.23;;;24.40;96.10;;;;;;4992022;28;20451;-87
2022/05/19 20:11:50;;;;;;;8.30;7.47;;;24.30;97.80;;;;;;4992084;28;20508;-87
2022/05/19 20:14:17;;;;;;;9.53;7.77;;;24.20;99.30;;;;;;4992263;28;20484;-87
2022/05/19 20:16:44;;;;;;;11.13;7.90;;;24.20;99.90;;;;;;4991776;28;20571;-88
2022/05/19 20:19:11;;;;;;;8.60;7.90;;;24.20;99.90;;;;;;4984983;28;20461;-85
2022/05/19 20:21:39;;;;;;;9.20;8.40;;;23.90;99.90;;;;;;4980753;28;20455;-85
2022/05/19 20:24:09;;;;;;;8.03;7.37;;;23.70;99.90;;;;;;4980181;28;20510;-85
2022/05/19 20:26:36;;;;;;;8.37;7.57;;;23.80;99.90;;;;;;4982354;28;21059;-87
2022/05/19 20:29:04;;;;;;;12.37;6.73;;;23.80;99.90;;;;;;4984496;28;20455;-85
2022/05/19 20:31:31;;;;;;;7.80;7.00;;;23.80;99.90;;;;;;4982908;28;20451;-85
2022/05/19 20:33:58;;;;;;;6.00;5.50;;;23.80;99.90;;;;;;4978322;28;20460;-85
2022/05/19 20:36:25;;;;;;;6.57;6.07;;;23.80;99.90;;;;;;4978636;28;20472;-86
2022/05/19 20:38:53;;;;;;;6.83;6.20;;;23.80;99.90;;;;;;4987832;28;20487;-88
2022/05/19 20:41:20;;;;;;;6.70;6.10;;;23.80;98.40;;;;;;4983597;28;20480;-85
2022/05/19 20:43:46;;;;;;;9.67;6.07;;;23.80;98.10;;;;;;4983924;28;20457;-87
2022/05/19 20:46:20;;;;;;;6.23;5.70;;;23.80;98.40;;;;;;4985671;28;20448;-86
2022/05/19 20:48:47;;;;;;;10.20;7.13;;;23.80;98.60;;;;;;4988407;28;20494;-85
2022/05/19 20:51:14;;;;;;;10.40;8.40;;;23.60;99.90;;;;;;4987440;28;20452;-86
2022/05/19 20:53:40;;;;;;;9.93;9.03;;;23.20;99.90;;;;;;4987393;28;20459;-86
2022/05/19 20:56:09;;;;;;;7.60;6.90;;;23.00;99.90;;;;;;4986416;28;20485;-85
2022/05/19 20:58:36;;;;;;;8.43;7.73;;;22.70;99.90;;;;;;4987677;28;20476;-86
2022/05/19 21:01:04;;;;;;;7.70;7.00;;;22.60;99.90;;;;;;4989292;28;20528;-86
2022/05/19 21:03:33;;;;;;;9.37;8.47;;;22.50;99.90;;;;;;4990429;28;20447;-86
2022/05/19 21:06:00;;;;;;;8.57;7.80;;;22.10;99.90;;;;;;4993281;28;20452;-86
2022/05/19 21:08:27;;;;;;;7.97;7.37;;;22.20;99.90;;;;;;4990449;28;21015;-86
2022/05/19 21:10:53;;;;;;;10.17;9.13;;;21.90;99.90;;;;;;4988391;28;20455;-86
2022/05/19 21:13:21;;;;;;;8.93;8.23;;;22.00;99.90;;;;;;4989764;28;20455;-86
2022/05/19 21:15:48;;;;;;;8.13;7.40;;;21.80;99.90;;;;;;4995254;28;20486;-85
2022/05/19 21:18:16;;;;;;;8.37;7.77;;;21.90;99.90;;;;;;4997942;28;20472;-85
2022/05/19 21:20:44;;;;;;;9.07;7.20;;;22.00;99.90;;;;;;4999918;28;20639;-85
2022/05/19 21:25:56;;;;;;;8.27;7.47;;;22.00;99.90;;;;;;4994526;28;20449;-85
2022/05/19 21:28:25;;;;;;;7.77;7.17;;;22.10;99.90;;;;;;4996561;28;20478;-85
2022/05/19 21:30:52;;;;;;;8.43;7.63;;;22.10;99.90;;;;;;4999082;28;20449;-85
2022/05/19 21:33:21;;;;;;;8.73;7.13;;;22.10;99.90;;;;;;4997418;28;20478;-85
2022/05/19 21:35:49;;;;;;;10.20;7.63;;;22.10;99.90;;;;;;4994339;28;20483;-85
2022/05/19 21:38:17;;;;;;;10.63;6.80;;;22.10;99.90;;;;;;5000630;28;20863;-85
2022/05/19 21:40:45;;;;;;;8.57;6.67;;;22.00;99.90;;;;;;4997697;28;20463;-85
2022/05/19 21:43:12;;;;;;;8.13;7.43;;;22.00;99.90;;;;;;4996969;28;20483;-86
2022/05/19 21:45:40;;;;;;;8.10;7.23;;;21.50;99.90;;;;;;4993555;28;20478;-85
2022/05/19 21:48:08;;;;;;;9.23;8.27;;;20.80;99.90;;;;;;4991304;28;20904;-86
2022/05/19 21:50:35;;;;;;;13.43;7.87;;;20.60;99.90;;;;;;4990766;28;20501;-86
2022/05/19 21:55:48;;;;;;;7.80;7.00;;;20.40;99.90;;;;;;4990679;28;20482;-86
2022/05/19 21:58:16;;;;;;;7.90;7.30;;;20.30;99.90;;;;;;4991873;28;20547;-86
2022/05/19 22:00:49;;;;;;;8.30;6.73;;;20.20;99.90;;;;;;4990908;28;20448;-86
2022/05/19 22:03:20;;;;;;;11.83;6.83;;;20.20;99.90;;;;;;4990747;28;20452;-85
2022/05/19 22:07:32;;;;;;;7.57;6.07;;;20.20;99.90;;;;;;4991910;28;20449;-85
2022/05/19 22:08:39;;;;;;;6.00;5.50;;;20.10;99.90;;;;;;4991940;28;20501;-84
2022/05/19 22:11:07;;;;;;;6.53;5.70;;;20.20;99.90;;;;;;4992326;28;20436;-86
2022/05/19 22:13:34;;;;;;;5.97;5.53;;;20.30;99.90;;;;;;4990624;28;20478;-86
2022/05/19 22:16:01;;;;;;;6.57;5.97;;;20.30;99.90;;;;;;4989322;28;20573;-85
2022/05/19 22:18:28;;;;;;;6.20;5.80;;;20.30;99.90;;;;;;4988713;28;20481;-85
2022/05/19 22:20:54;;;;;;;5.57;5.17;;;20.40;99.90;;;;;;4989386;28;20457;-85
2022/05/19 22:26:45;;;;;;;6.17;5.67;;;20.50;99.90;;;;;;4977577;28;20706;-86
2022/05/19 22:29:14;;;;;;;7.50;5.77;;;20.60;99.90;;;;;;4979928;28;20528;-84
2022/05/19 22:31:41;;;;;;;7.33;6.00;;;20.60;99.90;;;;;;4980580;28;20848;-85
2022/05/19 22:34:07;;;;;;;6.30;5.37;;;20.70;99.90;;;;;;4980274;28;20968;-85
2022/05/19 22:36:35;;;;;;;7.00;6.40;;;20.70;99.90;;;;;;4980439;28;20493;-85
2022/05/19 22:39:02;;;;;;;6.17;5.73;;;20.60;99.90;;;;;;4979555;28;21018;-85
2022/05/19 22:41:28;;;;;;;6.30;5.80;;;20.60;99.90;;;;;;4979922;28;20461;-86
2022/05/19 22:43:55;;;;;;;6.50;6.00;;;20.60;99.90;;;;;;4980212;28;20460;-85
2022/05/19 22:46:23;;;;;;;7.00;5.33;;;20.50;99.90;;;;;;4980816;28;20546;-86
2022/05/19 22:48:50;;;;;;;29.30;8.20;;;20.50;99.90;;;;;;4980442;28;20473;-85
2022/05/19 22:51:17;;;;;;;6.87;6.17;;;20.40;99.90;;;;;;4979228;28;20455;-85
2022/05/19 22:53:44;;;;;;;4.87;4.57;;;20.40;99.90;;;;;;4980436;28;20476;-85